Time;durP1;ratioP1;P1;durP2;ratioP2;P2;SDS_P1;SDS_P2;PMS_P1;PMS_P2;Temp;Humidity;BMP_temperature;BMP_pressure;BME280_temperature;BME280_humidity;BME280_pressure;Samples;Min_cycle;Max_cycle;Signal;HPM_P1;HPM_P2
2023/03/08 00:01:51;;;;;;;;;;;20.20;52.20;;;;;;5012844;55;20073;-34
2023/03/08 00:06:52;;;;;;;;;;;20.20;52.20;;;;;;4842164;54;20056;-34
2023/03/08 00:11:53;;;;;;;;;;;20.20;52.20;;;;;;5009350;55;20386;-34
2023/03/08 00:16:53;;;;;;;;;;;20.20;52.20;;;;;;5134974;55;20060;-34
2023/03/08 00:21:54;;;;;;;;;;;20.20;52.20;;;;;;4825834;55;20104;-33
2023/03/08 00:26:55;;;;;;;;;;;20.20;52.10;;;;;;4751626;58;20128;-34
2023/03/08 00:31:55;;;;;;;;;;;20.20;52.20;;;;;;4911487;55;20056;-34
2023/03/08 00:36:56;;;;;;;;;;;20.20;52.10;;;;;;4952209;55;20334;-34
2023/03/08 00:41:57;;;;;;;;;;;20.20;52.10;;;;;;4907017;55;20068;-34
2023/03/08 00:46:57;;;;;;;;;;;20.20;52.20;;;;;;4772891;55;20104;-34
2023/03/08 00:51:58;;;;;;;;;;;20.20;52.10;;;;;;4814450;55;20128;-34
2023/03/08 00:56:58;;;;;;;;;;;20.20;52.10;;;;;;4910035;55;20137;-34
2023/03/08 01:02:00;;;;;;;;;;;20.20;52.10;;;;;;4979879;55;20659;-35
2023/03/08 01:07:00;;;;;;;;;;;20.20;52.00;;;;;;4805641;54;20072;-34
2023/03/08 01:12:01;;;;;;;;;;;20.20;52.10;;;;;;5103970;55;20299;-34
2023/03/08 01:17:02;;;;;;;;;;;20.20;52.00;;;;;;4801633;55;20069;-34
2023/03/08 01:22:02;;;;;;;;;;;20.20;52.00;;;;;;4751793;58;20072;-33
2023/03/08 01:27:03;;;;;;;;;;;20.10;52.00;;;;;;5038560;55;20119;-33
2023/03/08 01:32:04;;;;;;;;;;;20.10;51.90;;;;;;4927759;55;20065;-32
2023/03/08 01:37:04;;;;;;;;;;;20.10;52.10;;;;;;4880730;55;20068;-34
2023/03/08 01:42:06;;;;;;;;;;;20.10;51.90;;;;;;4807142;55;20319;-35
2023/03/08 01:47:12;;;;;;;;;;;20.10;51.90;;;;;;4752062;55;20318;-34
2023/03/08 01:52:15;;;;;;;;;;;20.10;51.90;;;;;;4940989;55;20052;-34
2023/03/08 01:57:24;;;;;;;;;;;20.20;51.90;;;;;;4751719;58;20087;-34
2023/03/08 02:02:28;;;;;;;;;;;20.20;51.90;;;;;;4796270;55;20064;-34
2023/03/08 02:07:29;;;;;;;;;;;20.10;51.90;;;;;;4752062;55;20112;-34
2023/03/08 02:12:30;;;;;;;;;;;20.20;51.90;;;;;;4751662;58;20080;-32
2023/03/08 02:17:31;;;;;;;;;;;20.10;51.90;;;;;;4782323;55;20056;-35
2023/03/08 02:22:37;;;;;;;;;;;20.10;51.90;;;;;;4867483;55;20291;-33
2023/03/08 02:27:37;;;;;;;;;;;20.10;51.90;;;;;;5238248;55;20076;-32
2023/03/08 02:32:38;;;;;;;;;;;20.10;51.90;;;;;;4940733;55;20342;-33
2023/03/08 02:37:39;;;;;;;;;;;20.10;51.80;;;;;;4763003;55;20075;-34
2023/03/08 02:42:39;;;;;;;;;;;20.10;52.50;;;;;;4771098;55;20297;-34
2023/03/08 02:47:41;;;;;;;;;;;20.10;51.80;;;;;;4977823;55;20069;-33
2023/03/08 02:52:41;;;;;;;;;;;20.10;51.90;;;;;;4751786;58;20298;-32
2023/03/08 02:57:42;;;;;;;;;;;20.10;51.80;;;;;;4925959;55;20108;-32
2023/03/08 03:02:43;;;;;;;;;;;20.10;51.80;;;;;;4881697;55;20298;-34
2023/03/08 03:07:43;;;;;;;;;;;20.10;51.80;;;;;;4751790;58;20076;-33
2023/03/08 03:12:44;;;;;;;;;;;20.10;51.70;;;;;;5139180;55;20072;-34
2023/03/08 03:17:45;;;;;;;;;;;20.10;51.80;;;;;;4751914;55;20057;-33
2023/03/08 03:22:46;;;;;;;;;;;20.10;51.80;;;;;;4822880;55;20112;-33
2023/03/08 03:27:46;;;;;;;;;;;20.10;51.70;;;;;;4752170;58;20072;-33
2023/03/08 03:32:47;;;;;;;;;;;20.10;51.70;;;;;;4909430;55;20109;-33
2023/03/08 03:37:47;;;;;;;;;;;20.10;51.80;;;;;;4949759;55;20302;-34
2023/03/08 03:42:48;;;;;;;;;;;20.10;51.70;;;;;;4809352;55;20096;-33
2023/03/08 03:47:49;;;;;;;;;;;20.10;52.40;;;;;;4815360;55;20052;-33
2023/03/08 03:52:50;;;;;;;;;;;20.10;51.70;;;;;;4767483;55;20124;-34
2023/03/08 03:57:50;;;;;;;;;;;20.10;51.80;;;;;;4752086;58;20116;-35
2023/03/08 04:02:51;;;;;;;;;;;20.10;51.70;;;;;;4763569;55;20080;-34
2023/03/08 04:07:52;;;;;;;;;;;20.10;51.70;;;;;;4780975;55;20108;-33
2023/03/08 04:12:52;;;;;;;;;;;20.10;52.40;;;;;;4751990;58;20279;-33
2023/03/08 04:17:53;;;;;;;;;;;20.10;51.70;;;;;;5038169;55;20112;-35
2023/03/08 04:22:53;;;;;;;;;;;20.10;51.70;;;;;;4777793;55;20100;-33
2023/03/08 04:27:54;;;;;;;;;;;20.10;51.70;;;;;;4793801;55;20072;-34
2023/03/08 04:32:55;;;;;;;;;;;20.10;51.80;;;;;;5181310;55;20111;-34
2023/03/08 04:37:55;;;;;;;;;;;20.10;51.90;;;;;;4807144;55;20359;-33
2023/03/08 04:42:56;;;;;;;;;;;20.10;51.90;;;;;;4805866;55;20124;-34
2023/03/08 04:47:57;;;;;;;;;;;20.10;51.90;;;;;;4795948;55;20064;-34
2023/03/08 04:52:57;;;;;;;;;;;20.10;52.00;;;;;;4751792;58;20387;-34
2023/03/08 04:57:58;;;;;;;;;;;20.10;52.00;;;;;;4866872;55;20072;-34
2023/03/08 05:02:58;;;;;;;;;;;20.10;52.10;;;;;;4793962;55;20127;-34
2023/03/08 05:08:03;;;;;;;;;;;20.10;52.00;;;;;;4751706;58;20128;-33
2023/03/08 05:13:03;;;;;;;;;;;20.00;52.00;;;;;;4765959;55;20819;-33
2023/03/08 05:18:04;;;;;;;;;;;20.00;52.00;;;;;;5071527;55;20073;-35
2023/03/08 05:23:04;;;;;;;;;;;20.00;52.10;;;;;;4804181;55;20290;-33
2023/03/08 05:28:05;;;;;;;;;;;20.00;52.00;;;;;;4751683;58;20354;-33
2023/03/08 05:33:06;;;;;;;;;;;20.10;52.00;;;;;;4755595;55;20061;-34
2023/03/08 05:38:07;;;;;;;;;;;20.00;52.10;;;;;;4752050;58;20112;-34
2023/03/08 05:43:07;;;;;;;;;;;20.10;52.10;;;;;;4751193;58;20068;-32
2023/03/08 05:48:08;;;;;;;;;;;20.00;52.00;;;;;;4867959;55;20072;-33
2023/03/08 05:53:09;;;;;;;;;;;20.10;52.00;;;;;;4877815;55;20069;-33
2023/03/08 05:58:09;;;;;;;;;;;20.10;52.10;;;;;;4831749;55;20128;-34
2023/03/08 06:03:10;;;;;;;;;;;20.00;52.00;;;;;;4828189;55;20099;-34
2023/03/08 06:08:10;;;;;;;;;;;20.00;52.00;;;;;;4781773;55;20064;-34
2023/03/08 06:13:11;;;;;;;;;;;20.00;52.00;;;;;;4751835;58;20306;-34
2023/03/08 06:18:12;;;;;;;;;;;20.00;52.00;;;;;;4751537;58;20393;-34
2023/03/08 06:23:12;;;;;;;;;;;20.00;52.00;;;;;;4862225;55;20128;-34
2023/03/08 06:28:13;;;;;;;;;;;20.00;52.00;;;;;;5074887;55;20089;-34
2023/03/08 06:33:15;;;;;;;;;;;20.00;52.00;;;;;;4987778;55;20287;-33
2023/03/08 06:38:15;;;;;;;;;;;20.10;52.00;;;;;;4871920;55;20159;-35
2023/03/08 06:43:16;;;;;;;;;;;20.00;52.00;;;;;;4751186;58;20064;-35
2023/03/08 06:48:17;;;;;;;;;;;20.10;52.00;;;;;;4967018;55;20056;-35
2023/03/08 06:53:17;;;;;;;;;;;20.10;52.00;;;;;;5014175;55;20120;-34
2023/03/08 06:58:18;;;;;;;;;;;20.00;52.00;;;;;;4883829;55;20335;-33
2023/03/08 07:03:19;;;;;;;;;;;20.10;52.00;;;;;;4869341;55;20064;-32
2023/03/08 07:08:19;;;;;;;;;;;20.10;52.00;;;;;;4781233;55;20338;-34
2023/03/08 07:13:22;;;;;;;;;;;20.00;51.90;;;;;;4751996;55;20072;-33
2023/03/08 07:18:23;;;;;;;;;;;20.00;52.00;;;;;;4941549;55;20402;-35
2023/03/08 07:23:24;;;;;;;;;;;20.10;52.00;;;;;;4812163;55;20056;-35
2023/03/08 07:28:24;;;;;;;;;;;20.00;51.90;;;;;;4779476;55;20068;-33
2023/03/08 07:33:25;;;;;;;;;;;20.00;51.90;;;;;;4821270;55;20116;-34
2023/03/08 07:38:25;;;;;;;;;;;20.10;52.00;;;;;;4862288;55;20105;-34
2023/03/08 07:43:26;;;;;;;;;;;20.00;52.20;;;;;;4805658;55;20309;-34
2023/03/08 07:48:28;;;;;;;;;;;20.00;52.60;;;;;;4768870;55;20140;-32
2023/03/08 07:53:29;;;;;;;;;;;20.00;52.00;;;;;;4750380;55;20426;-32
2023/03/08 07:58:30;;;;;;;;;;;20.10;52.00;;;;;;4751551;58;20123;-32
2023/03/08 08:03:31;;;;;;;;;;;20.10;51.80;;;;;;4811943;55;20302;-32
2023/03/08 08:08:32;;;;;;;;;;;20.20;51.80;;;;;;4799568;55;20061;-33
2023/03/08 08:13:32;;;;;;;;;;;20.20;51.80;;;;;;4751363;58;20053;-32
2023/03/08 08:18:34;;;;;;;;;;;20.20;51.80;;;;;;4882457;55;20132;-32
2023/03/08 08:23:35;;;;;;;;;;;20.20;51.70;;;;;;4750769;58;20084;-28
2023/03/08 08:28:36;;;;;;;;;;;20.30;51.70;;;;;;4765364;55;20068;-30
2023/03/08 08:33:37;;;;;;;;;;;20.30;51.60;;;;;;4751604;58;20128;-34
2023/03/08 08:38:37;;;;;;;;;;;20.30;51.40;;;;;;4750531;58;20049;-29
2023/03/08 08:43:38;;;;;;;;;;;20.30;51.40;;;;;;4751094;56;20087;-32
2023/03/08 08:48:39;;;;;;;;;;;20.30;51.40;;;;;;4750809;58;20056;-34
2023/03/08 08:53:40;;;;;;;;;;;20.30;51.40;;;;;;4838373;55;20330;-32
2023/03/08 08:58:40;;;;;;;;;;;20.40;51.40;;;;;;4784075;55;20085;-30
2023/03/08 09:03:41;;;;;;;;;;;20.40;51.30;;;;;;4876619;55;20314;-32
2023/03/08 09:08:42;;;;;;;;;;;20.40;51.20;;;;;;4760619;55;20368;-30
2023/03/08 09:13:43;;;;;;;;;;;20.40;50.90;;;;;;4843753;55;20056;-30
2023/03/08 09:18:43;;;;;;;;;;;20.40;50.70;;;;;;4820286;55;20108;-31
2023/03/08 09:23:44;;;;;;;;;;;20.40;50.50;;;;;;4799798;55;20060;-33
2023/03/08 09:28:45;;;;;;;;;;;20.40;50.70;;;;;;4840070;55;20112;-30
2023/03/08 09:33:47;;;;;;;;;;;20.40;50.70;;;;;;4794606;55;20060;-29
2023/03/08 09:38:48;;;;;;;;;;;20.40;50.70;;;;;;4790241;55;20068;-31
2023/03/08 09:44:02;;;;;;;;;;;20.40;50.60;;;;;;4751027;58;20383;-30
2023/03/08 09:49:06;;;;;;;;;;;20.40;50.60;;;;;;4825690;55;20072;-34
2023/03/08 09:54:09;;;;;;;;;;;20.40;50.60;;;;;;4845815;55;20112;-31
2023/03/08 10:00:40;;;;;;;;;;;20.40;51.20;;;;;;4835416;55;20064;-31
2023/03/08 10:05:59;;;;;;;;;;;20.50;50.60;;;;;;4789947;55;20992;-29
2023/03/08 10:11:06;;;;;;;;;;;20.50;50.30;;;;;;4783296;55;20103;-33
2023/03/08 10:16:24;;;;;;;;;;;20.50;50.40;;;;;;5058267;55;20344;-32
2023/03/08 10:21:25;;;;;;;;;;;20.50;50.30;;;;;;4829361;55;20120;-30
2023/03/08 10:26:26;;;;;;;;;;;20.50;50.30;;;;;;4879041;55;20072;-32
2023/03/08 10:31:28;;;;;;;;;;;20.60;51.30;;;;;;4771204;55;20075;-30
2023/03/08 10:36:29;;;;;;;;;;;20.50;52.30;;;;;;4871303;55;20180;-34
2023/03/08 10:41:31;;;;;;;;;;;20.60;51.70;;;;;;4751087;58;20128;-31
2023/03/08 10:46:32;;;;;;;;;;;20.60;51.90;;;;;;4882307;55;20315;-32
2023/03/08 10:51:33;;;;;;;;;;;20.70;52.10;;;;;;4793754;55;20116;-34
2023/03/08 10:56:49;;;;;;;;;;;20.70;52.10;;;;;;4805058;55;20116;-29
2023/03/08 11:01:54;;;;;;;;;;;20.70;52.20;;;;;;4789549;55;20088;-31
2023/03/08 11:06:55;;;;;;;;;;;20.70;52.40;;;;;;4751745;55;20117;-31
2023/03/08 11:11:56;;;;;;;;;;;20.80;52.60;;;;;;4751422;58;20330;-30
2023/03/08 11:17:13;;;;;;;;;;;20.80;52.90;;;;;;4760249;55;20130;-33
2023/03/08 11:23:36;;;;;;;;;;;20.80;52.90;;;;;;4907421;55;20354;-32
2023/03/08 11:31:14;;;;;;;;;;;20.80;52.90;;;;;;4904716;55;20347;-32
2023/03/08 11:36:33;;;;;;;;;;;20.80;52.90;;;;;;4763658;55;20121;-30
2023/03/08 11:41:39;;;;;;;;;;;20.90;53.00;;;;;;4825121;55;20120;-32
2023/03/08 11:48:32;;;;;;;;;;;20.90;52.60;;;;;;4751168;58;20088;-32
2023/03/08 11:54:24;;;;;;;;;;;20.90;52.80;;;;;;4842605;55;20117;-29
2023/03/08 12:00:07;;;;;;;;;;;20.90;52.90;;;;;;4751355;58;20073;-30
2023/03/08 12:05:28;;;;;;;;;;;20.90;53.00;;;;;;4905830;54;20286;-30
2023/03/08 12:10:55;;;;;;;;;;;20.90;52.90;;;;;;4752247;55;20348;-34
2023/03/08 12:17:26;;;;;;;;;;;21.00;52.90;;;;;;4822139;55;20295;-32
2023/03/08 12:22:42;;;;;;;;;;;20.90;52.30;;;;;;4757668;55;20076;-32
2023/03/08 12:27:49;;;;;;;;;;;20.90;52.00;;;;;;4755308;55;20467;-31
2023/03/08 12:32:52;;;;;;;;;;;20.90;51.70;;;;;;4913561;55;20089;-32
2023/03/08 12:37:57;;;;;;;;;;;20.90;51.80;;;;;;4781103;55;20430;-33
2023/03/08 12:43:05;;;;;;;;;;;20.90;51.10;;;;;;4749260;58;20065;-32
2023/03/08 12:48:16;;;;;;;;;;;20.90;51.10;;;;;;4778018;55;20076;-33
2023/03/08 12:53:30;;;;;;;;;;;20.90;51.20;;;;;;4819825;55;20095;-32
2023/03/08 12:58:32;;;;;;;;;;;20.90;51.70;;;;;;4751224;55;20140;-30
2023/03/08 13:03:40;;;;;;;;;;;20.90;51.70;;;;;;4760956;55;20084;-30
2023/03/08 13:08:43;;;;;;;;;;;20.90;51.90;;;;;;4785959;55;20331;-32
2023/03/08 13:13:47;;;;;;;;;;;20.90;51.80;;;;;;4805912;55;20238;-29
2023/03/08 13:18:49;;;;;;;;;;;20.90;51.80;;;;;;4785401;55;20068;-30
2023/03/08 13:23:55;;;;;;;;;;;20.90;51.90;;;;;;4757651;55;20080;-32
2023/03/08 13:28:56;;;;;;;;;;;20.90;52.10;;;;;;4901930;55;20097;-29
2023/03/08 13:33:58;;;;;;;;;;;20.90;52.40;;;;;;4770844;55;20290;-31
2023/03/08 13:39:21;;;;;;;;;;;20.90;52.30;;;;;;4800815;55;20113;-31
2023/03/08 13:44:23;;;;;;;;;;;20.90;52.50;;;;;;4750807;58;20108;-31
2023/03/08 13:49:25;;;;;;;;;;;20.90;52.80;;;;;;4784841;55;20069;-31
2023/03/08 13:54:28;;;;;;;;;;;20.90;53.00;;;;;;4751585;55;20120;-31
2023/03/08 13:59:29;;;;;;;;;;;20.90;53.00;;;;;;4849516;55;20343;-32
2023/03/08 14:04:30;;;;;;;;;;;20.90;53.10;;;;;;4813952;55;20150;-33
2023/03/08 14:09:30;;;;;;;;;;;20.90;53.10;;;;;;4772323;55;20263;-32
2023/03/08 14:14:32;;;;;;;;;;;20.90;52.60;;;;;;4766253;55;20342;-31
2023/03/08 14:19:34;;;;;;;;;;;21.00;52.90;;;;;;4830783;55;20136;-35
2023/03/08 14:24:35;;;;;;;;;;;21.00;53.10;;;;;;4763889;55;20072;-33
2023/03/08 14:29:39;;;;;;;;;;;20.90;53.00;;;;;;4797716;55;20111;-33
2023/03/08 14:34:43;;;;;;;;;;;20.90;53.00;;;;;;4752366;55;20322;-33
2023/03/08 14:39:46;;;;;;;;;;;20.80;53.00;;;;;;4759631;55;20112;-34
2023/03/08 14:44:56;;;;;;;;;;;20.80;53.00;;;;;;4901034;55;20176;-33
2023/03/08 14:51:00;;;;;;;;;;;20.80;53.00;;;;;;4849060;55;20279;-33
2023/03/08 14:56:04;;;;;;;;;;;20.70;52.90;;;;;;4751827;58;20302;-35
2023/03/08 15:01:04;;;;;;;;;;;20.70;52.90;;;;;;4775313;55;20084;-34
2023/03/08 15:06:16;;;;;;;;;;;20.70;52.90;;;;;;4821522;55;20052;-35
2023/03/08 15:11:17;;;;;;;;;;;20.70;52.90;;;;;;4751718;58;20068;-34
2023/03/08 15:16:17;;;;;;;;;;;20.70;52.90;;;;;;4751656;58;20322;-33
2023/03/08 15:21:21;;;;;;;;;;;20.60;52.80;;;;;;5018152;55;20057;-34
2023/03/08 15:26:32;;;;;;;;;;;20.60;52.80;;;;;;4790532;55;20113;-34
2023/03/08 15:31:32;;;;;;;;;;;20.60;52.70;;;;;;4751935;58;20073;-34
2023/03/08 15:36:34;;;;;;;;;;;20.60;52.70;;;;;;4753670;55;20300;-36
2023/03/08 15:41:35;;;;;;;;;;;20.60;52.60;;;;;;4888963;55;20331;-33
2023/03/08 15:46:35;;;;;;;;;;;20.60;52.70;;;;;;4839059;55;20112;-35
2023/03/08 15:51:36;;;;;;;;;;;20.60;52.70;;;;;;4751976;58;20113;-34
2023/03/08 15:56:37;;;;;;;;;;;20.60;52.60;;;;;;4897841;55;20065;-34
2023/03/08 16:01:38;;;;;;;;;;;20.60;52.60;;;;;;4842170;55;20064;-34
2023/03/08 16:06:40;;;;;;;;;;;20.50;52.60;;;;;;4751715;58;20113;-33
2023/03/08 16:11:40;;;;;;;;;;;20.60;52.60;;;;;;4790636;55;20100;-33
2023/03/08 16:16:41;;;;;;;;;;;20.50;52.50;;;;;;4964051;55;20365;-33
2023/03/08 16:21:42;;;;;;;;;;;20.50;52.50;;;;;;4854393;55;20064;-34
2023/03/08 16:26:42;;;;;;;;;;;20.50;52.50;;;;;;4766018;55;20302;-34
2023/03/08 16:31:43;;;;;;;;;;;20.60;52.50;;;;;;5151006;55;20128;-33
2023/03/08 16:36:44;;;;;;;;;;;20.60;52.60;;;;;;4752015;55;20108;-34
2023/03/08 16:41:45;;;;;;;;;;;20.50;52.50;;;;;;4751781;58;20061;-33
2023/03/08 16:46:45;;;;;;;;;;;20.50;52.50;;;;;;4957694;55;20307;-34
2023/03/08 16:51:48;;;;;;;;;;;20.50;52.50;;;;;;4946077;55;20064;-34
2023/03/08 16:56:49;;;;;;;;;;;20.50;53.20;;;;;;4752022;58;20322;-34
2023/03/08 17:01:50;;;;;;;;;;;20.50;52.40;;;;;;4751646;58;20069;-35
2023/03/08 17:06:50;;;;;;;;;;;20.50;52.40;;;;;;4751978;58;20064;-34
2023/03/08 17:11:51;;;;;;;;;;;20.50;52.40;;;;;;4755137;55;20065;-33
2023/03/08 17:16:52;;;;;;;;;;;20.50;52.40;;;;;;5139540;55;20105;-34
2023/03/08 17:21:52;;;;;;;;;;;20.50;52.50;;;;;;4753042;55;20107;-35
2023/03/08 17:26:53;;;;;;;;;;;20.50;52.40;;;;;;4787616;55;20222;-33
2023/03/08 17:31:54;;;;;;;;;;;20.50;52.40;;;;;;4750933;55;20104;-33
2023/03/08 17:36:54;;;;;;;;;;;20.50;52.50;;;;;;4775264;55;20060;-35
2023/03/08 17:41:55;;;;;;;;;;;20.50;52.50;;;;;;4936184;55;20128;-32
2023/03/08 17:46:56;;;;;;;;;;;20.50;52.50;;;;;;4902951;55;20306;-33
2023/03/08 17:51:56;;;;;;;;;;;20.50;52.40;;;;;;4751530;58;20113;-34
2023/03/08 17:56:57;;;;;;;;;;;20.50;52.50;;;;;;4901053;55;20069;-33
2023/03/08 18:01:58;;;;;;;;;;;20.50;52.40;;;;;;4931543;55;20113;-34
2023/03/08 18:06:58;;;;;;;;;;;20.50;52.40;;;;;;4751494;56;20087;-33
2023/03/08 18:11:59;;;;;;;;;;;20.50;52.50;;;;;;4810207;55;20100;-34
2023/03/08 18:17:00;;;;;;;;;;;20.50;52.40;;;;;;4917688;55;20282;-35
2023/03/08 18:22:03;;;;;;;;;;;20.50;52.30;;;;;;4760253;55;20124;-34
2023/03/08 18:27:04;;;;;;;;;;;20.50;52.30;;;;;;4793071;55;20298;-33
2023/03/08 18:32:05;;;;;;;;;;;20.50;52.30;;;;;;4751325;58;20362;-28
2023/03/08 18:37:06;;;;;;;;;;;20.50;52.30;;;;;;4791235;55;20056;-33
2023/03/08 18:42:06;;;;;;;;;;;20.50;52.30;;;;;;4834568;55;20294;-33
2023/03/08 18:47:07;;;;;;;;;;;20.50;52.30;;;;;;4882007;55;20096;-34
2023/03/08 18:52:08;;;;;;;;;;;20.50;52.30;;;;;;4751680;58;20060;-34
2023/03/08 18:57:09;;;;;;;;;;;20.40;52.20;;;;;;4805223;55;20183;-35
2023/03/08 19:02:10;;;;;;;;;;;20.50;52.40;;;;;;4816106;55;20295;-35
2023/03/08 19:07:14;;;;;;;;;;;20.40;52.20;;;;;;4894701;55;20299;-35
2023/03/08 19:12:14;;;;;;;;;;;20.50;52.30;;;;;;5119310;55;20073;-31
2023/03/08 19:17:15;;;;;;;;;;;20.40;52.20;;;;;;4751953;58;20120;-34
2023/03/08 19:22:16;;;;;;;;;;;20.50;52.40;;;;;;4870796;55;20060;-34
2023/03/08 19:27:16;;;;;;;;;;;20.40;52.20;;;;;;4788351;55;20076;-33
2023/03/08 19:32:17;;;;;;;;;;;20.40;52.20;;;;;;4789433;55;20104;-34
2023/03/08 19:37:18;;;;;;;;;;;20.40;52.20;;;;;;4892618;55;20299;-33
2023/03/08 19:42:18;;;;;;;;;;;20.40;52.20;;;;;;4751390;58;20116;-33
2023/03/08 19:47:19;;;;;;;;;;;20.40;52.20;;;;;;4751848;58;20069;-32
2023/03/08 19:52:20;;;;;;;;;;;20.40;52.20;;;;;;4890781;55;20302;-34
2023/03/08 19:57:21;;;;;;;;;;;20.40;52.20;;;;;;4751887;58;20060;-34
2023/03/08 20:02:21;;;;;;;;;;;20.40;52.30;;;;;;4751348;58;20065;-31
2023/03/08 20:07:22;;;;;;;;;;;20.40;52.30;;;;;;4862209;55;20048;-34
2023/03/08 20:12:23;;;;;;;;;;;20.40;52.30;;;;;;4779334;55;20108;-34
2023/03/08 20:17:23;;;;;;;;;;;20.40;52.30;;;;;;4795151;55;20117;-35
2023/03/08 20:22:24;;;;;;;;;;;20.40;52.20;;;;;;4751634;58;20128;-35
2023/03/08 20:27:25;;;;;;;;;;;20.40;52.30;;;;;;4750780;58;20351;-34
2023/03/08 20:32:26;;;;;;;;;;;20.40;52.20;;;;;;4795474;55;20419;-32
2023/03/08 20:37:27;;;;;;;;;;;20.40;52.20;;;;;;4811265;55;20116;-37
2023/03/08 20:42:29;;;;;;;;;;;20.40;52.20;;;;;;4852402;55;20163;-33
2023/03/08 20:47:30;;;;;;;;;;;20.40;52.20;;;;;;4768107;55;20310;-33
2023/03/08 20:52:32;;;;;;;;;;;20.40;52.20;;;;;;4752046;55;20057;-33
2023/03/08 20:57:33;;;;;;;;;;;20.40;52.20;;;;;;4795537;55;20283;-34
2023/03/08 21:02:34;;;;;;;;;;;20.40;52.20;;;;;;4751374;58;20112;-34
2023/03/08 21:07:35;;;;;;;;;;;20.40;52.20;;;;;;4791796;55;20072;-31
2023/03/08 21:12:35;;;;;;;;;;;20.40;52.20;;;;;;4752005;58;20321;-34
2023/03/08 21:17:39;;;;;;;;;;;20.40;52.20;;;;;;4881254;55;20112;-34
2023/03/08 21:22:39;;;;;;;;;;;20.40;52.80;;;;;;4751436;58;20125;-34
2023/03/08 21:27:41;;;;;;;;;;;20.40;52.10;;;;;;4908623;55;20302;-32
2023/03/08 21:32:42;;;;;;;;;;;20.40;52.10;;;;;;5238581;55;20270;-33
2023/03/08 21:37:46;;;;;;;;;;;20.40;52.10;;;;;;4999473;55;20069;-34
2023/03/08 21:42:46;;;;;;;;;;;20.40;52.20;;;;;;5238112;55;20064;-35
2023/03/08 21:47:47;;;;;;;;;;;20.40;52.20;;;;;;4776075;55;20065;-35
2023/03/08 21:52:48;;;;;;;;;;;20.40;52.10;;;;;;4785979;55;20056;-33
2023/03/08 21:57:48;;;;;;;;;;;20.40;52.10;;;;;;4799260;55;20111;-34
2023/03/08 22:02:49;;;;;;;;;;;20.40;52.10;;;;;;5193460;54;20056;-34
2023/03/08 22:07:50;;;;;;;;;;;20.40;52.10;;;;;;4821685;55;20118;-33
2023/03/08 22:12:51;;;;;;;;;;;20.40;52.10;;;;;;4991664;55;20323;-33
2023/03/08 22:17:52;;;;;;;;;;;20.40;52.00;;;;;;4751694;58;20283;-32
2023/03/08 22:22:52;;;;;;;;;;;20.40;52.10;;;;;;4931226;55;20064;-32
2023/03/08 22:27:53;;;;;;;;;;;20.40;52.00;;;;;;4751665;58;20350;-33
2023/03/08 22:32:54;;;;;;;;;;;20.40;52.00;;;;;;4810698;55;20060;-34
2023/03/08 22:37:54;;;;;;;;;;;20.40;52.00;;;;;;4751885;58;20271;-34
2023/03/08 22:42:55;;;;;;;;;;;20.40;52.00;;;;;;4855129;55;20068;-34
2023/03/08 22:47:59;;;;;;;;;;;20.40;52.00;;;;;;4967900;55;20354;-34
2023/03/08 22:53:00;;;;;;;;;;;20.40;51.90;;;;;;4940421;55;20346;-32
2023/03/08 22:58:01;;;;;;;;;;;20.40;51.90;;;;;;4751874;58;20352;-32
2023/03/08 23:03:01;;;;;;;;;;;20.40;51.90;;;;;;5199547;54;20112;-33
2023/03/08 23:08:05;;;;;;;;;;;20.40;52.00;;;;;;4796986;55;20064;-34
2023/03/08 23:13:06;;;;;;;;;;;20.40;51.90;;;;;;4861574;55;20355;-31
2023/03/08 23:18:06;;;;;;;;;;;20.40;51.90;;;;;;5161048;55;20060;-34
2023/03/08 23:23:07;;;;;;;;;;;20.40;51.90;;;;;;4884943;55;20077;-32
2023/03/08 23:28:08;;;;;;;;;;;20.40;51.80;;;;;;4750166;58;20069;-32
2023/03/08 23:33:08;;;;;;;;;;;20.40;52.10;;;;;;4756177;55;20569;-32
2023/03/08 23:38:09;;;;;;;;;;;20.40;51.80;;;;;;4994976;55;20354;-37
2023/03/08 23:43:09;;;;;;;;;;;20.40;51.80;;;;;;4751591;58;20105;-32
2023/03/08 23:48:10;;;;;;;;;;;20.40;51.90;;;;;;4952021;55;20291;-33
2023/03/08 23:53:11;;;;;;;;;;;20.40;51.80;;;;;;4761755;55;20102;-33
2023/03/08 23:58:11;;;;;;;;;;;20.40;51.90;;;;;;4868173;55;20077;-34
